Das ist die Wetter- und Hausseite der Bittkau's aus Magdeburg Ottersleben


Hier werden aktuelle Daten aus der privaten Wetterstation und

andere lokale Wettervorhersagen bereitgestellt




Thunder radar more information blitzortung!


Rain radar more information rain snow radar



Es ist keine erhöhte Aufmerksamkeit aufgrund des Wetters notwendig.    Es gibt keine Warnungen.

METAR-Meldungen aus der Umgebung

   
EDDP - Leipzig
Aktualisierung: 18.07.2019 1:20
Klar  
Klar  
   Wind: SSW 9.3 km/h
Wind: SSW 9.3 km/h
Temperatur: 25°C
Taupunkt: 9°C
Luftfeuchte: 36%
Luftdruck: 1012 hPa
Sichtbarkeit: More than 10 km
Bewölkung: Klar
EDDP 181120Z 20005KT 140V250 CAVOK 25/09 Q1012 NOSIG
EDDC - Dresden
Aktualisierung: 18.07.2019 1:20
Klar  
Klar  
   Wind: variiert 5.6 km/h
Wind: variiert 5.6 km/h
Temperatur: 24°C
Taupunkt: 7°C
Luftfeuchte: 34%
Luftdruck: 1012 hPa
Sichtbarkeit: More than 10 km
Bewölkung: Klar
EDDC 181120Z VRB03KT CAVOK 24/07 Q1012 NOSIG
EDDE - Erfurt
Aktualisierung: 18.07.2019 1:20
Klar  
Klar  
   Wind: Westen 14.8 km/h
Wind: Westen 14.8 km/h
Temperatur: 24°C
Taupunkt: 9°C
Luftfeuchte: 39%
Luftdruck: 1012 hPa
Sichtbarkeit: More than 10 km
Bewölkung: Klar
EDDE 181120Z 28008KT 220V330 CAVOK 24/09 Q1012 NOSIG
EDVE - Braunschweig
Aktualisierung: 18.07.2019 1:20
Klar  
Klar  
   Wind: SO 9.3 km/h
Wind: SO 9.3 km/h
Temperatur: 24°C
Taupunkt: 8°C
Luftfeuchte: 36%
Luftdruck: 1011 hPa
Sichtbarkeit: More than 10 km
Bewölkung: Klar
EDVE 181120Z 13005KT 060V170 CAVOK 24/08 Q1011
EDDV - Hannover
Aktualisierung: 18.07.2019 1:20
Klar  
Klar  
   Wind: Süden 5.6 km/h
Wind: Süden 5.6 km/h
Temperatur: 26°C
Taupunkt: 9°C
Luftfeuchte: 34%
Luftdruck: 1011 hPa
Sichtbarkeit: More than 10 km
Bewölkung: Klar
EDDV 181120Z 18003KT 110V280 CAVOK 26/09 Q1011 NOSIG
EDDT - Berlin
Aktualisierung: 18.07.2019 1:20
Klar  
Klar  
   Wind: Osten 9.3 km/h
Wind: Osten 9.3 km/h
Temperatur: 26°C
Taupunkt: 8°C
Luftfeuchte: 32%
Luftdruck: 1012 hPa
Sichtbarkeit: More than 10 km
Bewölkung: Klar
EDDT 181120Z 09005KT 340V150 CAVOK 26/08 Q1012 NOSIG
EDDE - Schwerin
Aktualisierung: 18.07.2019 1:20
Klar  
Klar  
   Wind: Westen 14.8 km/h
Wind: Westen 14.8 km/h
Temperatur: 24°C
Taupunkt: 9°C
Luftfeuchte: 39%
Luftdruck: 1012 hPa
Sichtbarkeit: More than 10 km
Bewölkung: Klar
EDDE 181120Z 28008KT 220V330 CAVOK 24/09 Q1012 NOSIG
EDHI - Hamburg
Aktualisierung: 18.07.2019 1:20
Teilweise bewölkt  
Teilweise bewölkt  
   Wind: variiert 5.6 km/h
Wind: variiert 5.6 km/h
Temperatur: 23°C
Taupunkt: 12°C
Luftfeuchte: 50%
Luftdruck: 1011 hPa
Bewölkt: Teilweise bewölkt
Sichtbarkeit: More than 10 km
Bewölkung: Teilweise bewölkt 1463 m
EDHI 181120Z VRB03KT 9999 SCT048 23/12 Q1011
EDDK - Köln-Bonn
Aktualisierung: 18.07.2019 1:20
Klar  
Klar  
   Wind: variiert 5.6 km/h
Wind: variiert 5.6 km/h
Temperatur: 25°C
Taupunkt: 10°C
Luftfeuchte: 39%
Luftdruck: 1011 hPa
Sichtbarkeit: More than 10 km
Bewölkung: Klar
EDDK 181120Z VRB03KT CAVOK 25/10 Q1011 NOSIG
EDHL - Lübeck-Blankensee
Aktualisierung: 18.07.2019 1:20
Teilweise bewölkt  
Teilweise bewölkt  
   Wind: Süden 11.1 km/h
Wind: Süden 11.1 km/h
Temperatur: 23°C
Taupunkt: 12°C
Luftfeuchte: 50%
Luftdruck: 1012 hPa
Bewölkt: Teilweise bewölkt
Sichtbarkeit: More than 10 km
Bewölkung: Teilweise bewölkt 1432.6 m
EDHL 181120Z 18006KT 130V240 9999 SCT047 23/12 Q1012
  

Script entwickelt von  Saratoga-weather.org Angepasst für das Template von  Weerstation Leuven

Sie finden die Wetterinfo auch auf:

Wetternetzwerk Deutschland

European Weather Network

Weather Underground

Regionalwetter-SA

wetter.com

wxforum.de

Genutzte Hardware, Software und WEB Anbieter:

Wetterstation
Ventus W928-Ultimate

Wetterprogramm
Meteohub

WetterComputer
RaspberryPI

Anbieter
WEB Provider One.com

Ventus W928-Ultimate

Meteohub

RaspberryPI

WEB Provider One.com